Time;durP1;ratioP1;P1;durP2;ratioP2;P2;SDS_P1;SDS_P2;PMS_P1;PMS_P2;Temp;Humidity;BMP_temperature;BMP_pressure;BME280_temperature;BME280_humidity;BME280_pressure;Samples;Min_cycle;Max_cycle;Signal;HPM_P1;HPM_P2
2021/05/18 00:00:40;;;;;;;12.03;9.88;;;;;;;14.75;77.18;98192.75;1778718;80;21565;-73
2021/05/18 00:03:07;;;;;;;11.60;10.38;;;;;;;14.77;77.16;98192.56;1765883;81;21552;-74
2021/05/18 00:05:36;;;;;;;13.68;10.72;;;;;;;14.71;77.32;98190.11;1769290;80;21680;-73
2021/05/18 00:08:09;;;;;;;10.85;9.70;;;;;;;14.62;77.28;98190.61;1765775;81;21049;-72
2021/05/18 00:13:27;;;;;;;10.98;9.70;;;;;;;14.64;76.79;98197.08;1768923;80;21649;-72
2021/05/18 00:15:56;;;;;;;11.53;10.18;;;;;;;14.56;76.93;98196.09;1772344;80;21075;-72
2021/05/18 00:18:24;;;;;;;11.83;9.90;;;;;;;14.45;76.95;98191.17;1762627;80;21056;-72
2021/05/18 00:20:53;;;;;;;16.73;12.45;;;;;;;14.35;77.23;98188.70;1785747;80;21041;-72
2021/05/18 00:23:19;;;;;;;20.65;14.43;;;;;;;14.28;77.29;98188.22;1766590;80;21576;-72
2021/05/18 00:25:46;;;;;;;18.98;14.25;;;;;;;14.12;77.72;98185.94;1787870;80;21049;-72
2021/05/18 00:28:12;;;;;;;23.50;14.60;;;;;;;13.96;78.41;98182.78;1771133;80;21018;-72
2021/05/18 00:30:40;;;;;;;16.82;12.47;;;;;;;13.85;78.87;98178.66;1769323;80;21061;-72
2021/05/18 00:33:17;;;;;;;13.22;11.55;;;;;;;13.83;78.99;98175.33;1765982;81;21075;-72
2021/05/18 00:35:44;;;;;;;12.88;10.88;;;;;;;13.89;78.87;98176.50;1767340;80;21586;-72
2021/05/18 00:38:14;;;;;;;12.75;11.00;;;;;;;13.91;79.18;98180.66;1765999;80;21672;-73
2021/05/18 00:40:42;;;;;;;16.62;12.23;;;;;;;13.88;79.42;98179.64;1766359;80;21061;-74
2021/05/18 00:43:10;;;;;;;11.55;9.55;;;;;;;13.82;79.41;98177.65;1784247;80;21588;-73
2021/05/18 00:45:47;;;;;;;11.80;9.55;;;;;;;13.82;79.45;98181.63;1778555;80;21061;-73
2021/05/18 00:48:14;;;;;;;11.63;9.00;;;;;;;13.84;79.21;98179.66;1730978;83;21034;-73
2021/05/18 00:50:45;;;;;;;12.90;10.43;;;;;;;13.76;79.47;98176.50;1699323;83;21100;-72
2021/05/18 00:53:14;;;;;;;13.68;11.10;;;;;;;13.64;79.96;98179.66;1702018;83;21038;-72
2021/05/18 00:55:50;;;;;;;12.00;10.08;;;;;;;13.60;80.32;98177.83;1703384;83;21638;-72
2021/05/18 00:58:27;;;;;;;13.55;10.10;;;;;;;13.68;80.02;98163.23;1718727;83;21046;-72
2021/05/18 01:00:57;;;;;;;14.50;9.40;;;;;;;13.59;80.33;98162.41;1749731;81;21066;-72
2021/05/18 01:03:23;;;;;;;11.00;8.93;;;;;;;13.59;80.33;98162.41;1720423;82;21554;-72
2021/05/18 01:08:36;;;;;;;14.05;11.38;;;;;;;13.47;80.59;98166.38;1718578;82;21087;-73
2021/05/18 01:11:03;;;;;;;11.63;10.43;;;;;;;13.55;80.55;98161.05;1728329;82;21053;-73
2021/05/18 01:13:31;;;;;;;11.15;9.95;;;;;;;13.58;80.67;98159.41;1764487;81;21073;-78
2021/05/18 01:15:58;;;;;;;11.08;9.60;;;;;;;13.57;80.77;98163.57;1747811;82;22259;-77
2021/05/18 01:18:25;;;;;;;9.98;8.90;;;;;;;13.63;80.80;98159.41;1728656;82;21067;-77
2021/05/18 01:20:58;;;;;;;10.43;9.33;;;;;;;13.73;79.91;98164.05;1715113;82;21593;-77
2021/05/18 01:23:25;;;;;;;11.30;10.10;;;;;;;13.73;79.91;98164.05;1714385;82;21071;-78
2021/05/18 01:25:53;;;;;;;11.75;10.03;;;;;;;13.67;79.88;98164.23;1714461;82;21067;-78
2021/05/18 01:28:21;;;;;;;9.88;8.85;;;;;;;13.62;79.72;98159.06;1727776;82;21002;-76
2021/05/18 01:30:49;;;;;;;10.08;8.85;;;;;;;13.64;79.28;98150.45;1741717;82;21061;-76
2021/05/18 01:33:17;;;;;;;12.63;9.55;;;;;;;13.65;78.92;98156.91;1735932;82;21034;-78
2021/05/18 01:35:44;;;;;;;11.63;10.23;;;;;;;13.33;79.22;98155.06;1752318;82;21510;-77
2021/05/18 01:38:14;;;;;;;10.95;9.80;;;;;;;13.32;79.34;98156.05;1728443;82;21153;-78
2021/05/18 01:43:13;;;;;;;10.50;9.08;;;;;;;13.41;78.93;98151.10;1713982;84;21029;-77
2021/05/18 01:45:43;;;;;;;13.00;9.53;;;;;;;13.19;79.06;98153.88;1725919;83;21577;-75
2021/05/18 01:48:14;;;;;;;12.10;9.45;;;;;;;13.07;79.29;98145.41;1710066;83;21103;-77
2021/05/18 01:50:47;;;;;;;11.43;10.23;;;;;;;13.11;79.44;98140.11;1731057;83;21058;-77
2021/05/18 01:53:16;;;;;;;11.55;9.78;;;;;;;13.20;79.07;98140.44;1741225;82;21050;-77
2021/05/18 01:55:58;;;;;;;11.18;9.90;;;;;;;13.10;79.18;98129.97;1731185;82;21018;-77
2021/05/18 01:58:18;;;;;;;14.05;9.33;;;;;;;13.02;79.02;98140.59;1725281;82;21062;-76
2021/05/18 02:00:46;;;;;;;9.63;8.65;;;;;;;13.02;79.02;98140.59;1737622;82;21054;-76
2021/05/18 02:03:14;;;;;;;10.70;9.03;;;;;;;12.90;78.93;98138.75;1712506;84;21093;-77
2021/05/18 02:05:41;;;;;;;9.70;8.73;;;;;;;12.82;78.82;98140.03;1727153;82;21038;-76
2021/05/18 02:08:16;;;;;;;9.68;8.78;;;;;;;12.91;78.62;98140.38;1733395;81;21108;-77
2021/05/18 02:10:43;;;;;;;9.20;8.15;;;;;;;12.92;78.82;98131.44;1734267;81;21085;-77
2021/05/18 02:13:11;;;;;;;10.10;9.10;;;;;;;12.85;78.93;98134.42;1730571;83;21062;-76
2021/05/18 02:15:46;;;;;;;10.32;9.05;;;;;;;12.75;79.18;98129.76;1720577;82;21859;-75
2021/05/18 02:26:29;;;;;;;7.95;7.10;;;;;;;12.76;79.27;98124.77;1745544;81;21670;-77
2021/05/18 02:28:58;;;;;;;8.05;6.87;;;;;;;12.81;79.32;98122.45;1730887;82;22210;-76
2021/05/18 02:31:26;;;;;;;9.48;7.37;;;;;;;12.94;78.98;98117.52;1720087;82;21605;-76
2021/05/18 02:33:54;;;;;;;10.90;9.15;;;;;;;12.95;78.98;98125.82;1718205;82;21112;-76
2021/05/18 02:36:24;;;;;;;11.38;10.18;;;;;;;12.93;79.31;98123.00;1718906;82;21038;-76
2021/05/18 02:38:52;;;;;;;12.05;10.60;;;;;;;12.89;79.60;98119.84;1710943;82;21129;-76
2021/05/18 02:41:20;;;;;;;9.65;8.65;;;;;;;12.94;79.80;98119.33;1743575;82;21094;-76
2021/05/18 02:44:17;;;;;;;10.28;9.05;;;;;;;13.11;79.55;98136.94;1739798;81;21050;-77
2021/05/18 02:49:10;;;;;;;10.20;8.58;;;;;;;13.00;80.47;98136.44;1719372;82;21003;-76
2021/05/18 02:51:43;;;;;;;11.08;9.28;;;;;;;12.96;80.94;98141.23;1731005;83;21058;-77
2021/05/18 02:54:12;;;;;;;11.45;10.25;;;;;;;13.09;81.49;98136.77;1733702;82;21062;-76
2021/05/18 02:56:45;;;;;;;11.53;9.88;;;;;;;13.09;81.49;98136.77;1736070;81;21033;-76
2021/05/18 02:59:13;;;;;;;11.12;9.88;;;;;;;13.06;82.03;98138.44;1717880;83;21082;-77
2021/05/18 03:01:37;;;;;;;10.65;9.33;;;;;;;13.10;82.31;98138.44;1725493;82;21566;-76
2021/05/18 03:04:05;;;;;;;11.40;10.23;;;;;;;13.24;82.19;98137.78;1718516;83;22160;-77
2021/05/18 03:06:33;;;;;;;12.33;10.65;;;;;;;13.30;82.31;98143.42;1719394;83;21098;-77
2021/05/18 03:09:01;;;;;;;9.83;8.60;;;;;;;13.28;82.59;98144.41;1715688;83;21070;-78
2021/05/18 03:11:27;;;;;;;9.98;8.90;;;;;;;13.34;82.54;98138.96;1729890;82;21039;-78
2021/05/18 03:13:54;;;;;;;10.80;9.53;;;;;;;13.42;82.40;98155.42;1712028;82;21063;-78
2021/05/18 03:16:21;;;;;;;11.38;9.28;;;;;;;13.48;82.33;98145.95;1734344;82;21082;-77
2021/05/18 03:18:47;;;;;;;10.85;9.53;;;;;;;13.45;82.50;98139.15;1721776;82;20994;-77
2021/05/18 03:21:15;;;;;;;10.30;9.00;;;;;;;13.46;82.65;98147.96;1703785;84;21557;-78
2021/05/18 03:23:41;;;;;;;11.05;9.48;;;;;;;13.62;82.40;98147.12;1734153;82;21049;-78
2021/05/18 03:26:08;;;;;;;13.95;10.15;;;;;;;13.65;82.34;98145.47;1739274;81;21014;-78
2021/05/18 03:28:35;;;;;;;11.80;9.98;;;;;;;13.61;82.47;98146.30;1734720;82;21585;-78
2021/05/18 03:36:14;;;;;;;12.55;9.88;;;;;;;13.82;82.11;98148.93;1745956;81;21108;-76
2021/05/18 03:38:44;;;;;;;13.22;10.35;;;;;;;13.78;82.29;98160.90;1740146;81;21185;-77
2021/05/18 03:41:14;;;;;;;12.98;10.58;;;;;;;13.85;82.09;98159.21;1724424;81;21026;-77
2021/05/18 03:43:46;;;;;;;13.78;10.88;;;;;;;13.96;81.87;98161.52;1747115;81;21077;-77
2021/05/18 04:02:46;;;;;;;10.55;9.18;;;;;;;14.31;81.59;98158.14;1741555;81;21014;-77
2021/05/18 04:19:00;;;;;;;8.70;7.12;;;;;;;14.66;80.67;98167.19;1729946;83;21027;-79
2021/05/18 04:48:46;;;;;;;9.30;7.95;;;;;;;15.52;77.47;98183.14;1691545;84;21078;-68
2021/05/18 05:01:41;;;;;;;10.88;8.68;;;;;;;15.46;77.62;98175.85;1688996;84;21522;-67
2021/05/18 05:07:03;;;;;;;10.98;8.73;;;;;;;15.64;77.21;98164.40;1679236;84;21041;-68
2021/05/18 05:09:30;;;;;;;10.82;7.58;;;;;;;15.56;77.38;98170.63;1677418;85;21125;-67
2021/05/18 05:14:41;;;;;;;9.40;7.15;;;;;;;15.69;76.81;98165.17;1678296;85;21625;-68
2021/05/18 05:17:07;;;;;;;9.60;7.30;;;;;;;15.52;77.09;98171.97;1684346;84;21058;-68
2021/05/18 05:19:35;;;;;;;9.50;8.10;;;;;;;15.44;77.42;98165.38;1678884;84;21074;-67
2021/05/18 05:22:03;;;;;;;11.15;8.48;;;;;;;15.53;77.42;98150.17;1678584;85;21090;-68
2021/05/18 05:24:29;;;;;;;11.55;8.90;;;;;;;15.55;77.51;98144.98;1678433;85;21061;-68
2021/05/18 05:26:56;;;;;;;10.78;8.20;;;;;;;15.63;77.80;98144.60;1692165;84;21058;-68
2021/05/18 05:29:23;;;;;;;10.20;9.08;;;;;;;15.85;77.55;98142.92;1695428;84;21034;-67
2021/05/18 05:31:50;;;;;;;10.80;8.73;;;;;;;16.10;77.08;98138.66;1706728;83;21078;-68
2021/05/18 05:34:18;;;;;;;10.38;8.73;;;;;;;16.22;76.56;98139.36;1706726;83;21085;-68
2021/05/18 05:36:47;;;;;;;9.28;7.72;;;;;;;16.25;76.11;98151.50;1706314;84;21141;-68
2021/05/18 05:41:45;;;;;;;12.75;8.90;;;;;;;16.40;75.37;98140.84;1688427;84;21043;-67
2021/05/18 05:44:11;;;;;;;9.83;8.48;;;;;;;16.46;75.11;98140.09;1680051;84;21034;-68
2021/05/18 05:46:38;;;;;;;9.23;8.08;;;;;;;16.48;75.05;98143.91;1698732;82;21035;-68
2021/05/18 05:49:05;;;;;;;9.63;8.63;;;;;;;16.55;75.08;98150.98;1687402;84;21053;-68
2021/05/18 05:51:32;;;;;;;8.73;7.75;;;;;;;16.68;74.92;98157.52;1702681;83;21066;-68
2021/05/18 05:53:59;;;;;;;8.53;7.47;;;;;;;16.69;74.87;98149.83;1701364;84;21057;-68
2021/05/18 05:56:27;;;;;;;9.93;7.92;;;;;;;16.64;74.65;98149.56;1705631;83;21059;-69
2021/05/18 05:58:54;;;;;;;9.58;8.03;;;;;;;16.72;74.55;98154.78;1721147;83;21002;-68
2021/05/18 06:01:21;;;;;;;10.35;9.00;;;;;;;16.80;74.28;98145.35;1695294;83;21075;-68
2021/05/18 06:03:47;;;;;;;8.88;7.17;;;;;;;16.81;74.20;98144.31;1696692;84;21078;-68
2021/05/18 06:06:14;;;;;;;9.38;8.10;;;;;;;16.82;73.81;98142.48;1697057;84;21088;-67
2021/05/18 06:08:44;;;;;;;10.38;8.73;;;;;;;16.97;73.73;98142.46;1707397;83;21066;-68
2021/05/18 06:14:00;;;;;;;13.80;9.48;;;;;;;17.27;73.20;98134.36;1697033;84;21109;-67
2021/05/18 06:43:05;;;;;;;11.80;8.13;;;;;;;18.80;69.25;98130.55;1699241;83;21113;-67
2021/05/18 06:48:15;;;;;;;11.10;9.18;;;;;;;19.08;67.62;98130.98;1697004;84;21096;-67
2021/05/18 06:50:43;;;;;;;11.85;10.40;;;;;;;19.06;67.64;98128.19;1691970;84;21089;-66
2021/05/18 06:53:09;;;;;;;11.93;9.30;;;;;;;19.07;67.91;98130.66;1700943;84;21110;-66
2021/05/18 06:55:37;;;;;;;10.20;9.20;;;;;;;19.07;67.86;98121.81;1700942;84;21078;-66
2021/05/18 06:58:19;;;;;;;10.08;8.93;;;;;;;19.13;67.49;98120.48;1687294;84;21037;-66
2021/05/18 07:00:45;;;;;;;11.20;9.50;;;;;;;19.30;66.95;98108.03;1701217;84;21058;-66
2021/05/18 07:03:14;;;;;;;11.35;9.40;;;;;;;19.42;66.54;98118.44;1702244;84;21049;-66
2021/05/18 07:10:48;;;;;;;13.28;10.45;;;;;;;19.73;64.65;98108.97;1690539;84;21089;-66
2021/05/18 07:13:16;;;;;;;13.98;10.28;;;;;;;19.79;64.38;98109.98;1697005;84;21073;-67
2021/05/18 07:15:44;;;;;;;11.93;8.63;;;;;;;19.89;64.52;98114.97;1698897;84;21129;-67
2021/05/18 07:18:11;;;;;;;11.15;8.50;;;;;;;20.07;64.04;98103.59;1687524;84;21079;-67
2021/05/18 07:20:39;;;;;;;11.50;8.30;;;;;;;20.19;63.69;98105.09;1703750;84;21096;-68
2021/05/18 07:23:10;;;;;;;12.03;9.90;;;;;;;20.20;63.08;98109.44;1713135;84;21042;-67
2021/05/18 07:25:36;;;;;;;13.90;9.83;;;;;;;20.19;63.83;98110.47;1692106;84;21133;-67
2021/05/18 07:28:07;;;;;;;10.72;9.63;;;;;;;20.26;63.71;98104.58;1693503;84;21109;-67
2021/05/18 07:30:38;;;;;;;10.85;8.48;;;;;;;20.35;63.56;98110.01;1691140;84;21065;-66
2021/05/18 07:33:10;;;;;;;11.07;9.27;;;;;;;20.42;62.71;98116.20;1685133;85;21109;-67
2021/05/18 07:35:37;;;;;;;10.30;8.73;;;;;;;20.49;62.63;98111.30;1684843;85;21090;-67
2021/05/18 07:38:05;;;;;;;9.78;8.53;;;;;;;20.49;62.15;98120.69;1703763;84;21290;-67
2021/05/18 07:40:32;;;;;;;7.08;5.83;;;;;;;20.46;62.31;98121.44;1696880;84;21572;-67
2021/05/18 07:42:59;;;;;;;8.70;6.97;;;;;;;20.51;61.88;98111.91;1693287;84;21065;-67
2021/05/18 07:45:27;;;;;;;10.38;7.17;;;;;;;20.59;61.44;98111.70;1702121;84;21089;-67
2021/05/18 07:48:01;;;;;;;8.30;6.15;;;;;;;20.52;61.10;98113.04;1718700;82;21575;-66
2021/05/18 07:50:38;;;;;;;9.40;6.55;;;;;;;20.36;61.13;98114.35;1713807;82;21090;-67
2021/05/18 08:06:42;;;;;;;7.33;6.15;;;;;;;19.77;62.15;98119.59;1722525;82;21093;-67
2021/05/18 08:09:08;;;;;;;9.40;6.17;;;;;;;19.68;62.61;98118.66;1734266;82;21593;-68
2021/05/18 08:11:36;;;;;;;11.22;7.10;;;;;;;19.62;62.82;98128.36;1729486;82;21109;-66
2021/05/18 08:14:04;;;;;;;10.45;7.70;;;;;;;19.57;63.01;98124.14;1733821;82;21102;-67
2021/05/18 08:17:15;;;;;;;9.95;7.67;;;;;;;19.49;63.50;98119.28;1726790;82;21049;-66
2021/05/18 08:19:22;;;;;;;8.75;7.95;;;;;;;19.55;63.99;98120.83;1701376;82;21115;-67
2021/05/18 10:36:11;;;;;;;7.22;5.60;;;;;;;18.81;67.46;98028.27;1706560;82;21161;-67
2021/05/18 10:38:45;;;;;;;7.42;5.62;;;;;;;18.89;67.11;98039.30;1710157;82;21039;-67
2021/05/18 10:41:18;;;;;;;6.33;5.12;;;;;;;18.82;67.05;98035.27;1697341;84;21086;-66
2021/05/18 10:43:56;;;;;;;9.05;5.10;;;;;;;18.73;67.45;98028.47;1719704;81;21034;-66
2021/05/18 10:46:25;;;;;;;7.87;4.53;;;;;;;18.70;67.63;98027.02;1705674;83;21092;-67
2021/05/18 10:48:54;;;;;;;8.60;5.12;;;;;;;18.78;67.26;98021.99;1688766;83;21085;-65
2021/05/18 10:51:50;;;;;;;7.45;4.40;;;;;;;18.73;67.47;98013.74;1720930;81;21077;-66
2021/05/18 10:54:41;;;;;;;6.85;4.67;;;;;;;18.64;68.00;98021.13;1689179;85;21615;-66
2021/05/18 10:57:17;;;;;;;5.10;3.58;;;;;;;18.54;68.46;98026.05;1651889;82;21624;-66
2021/05/18 10:59:48;;;;;;;5.50;3.62;;;;;;;18.55;68.44;98014.33;1723296;82;21052;-67
2021/05/18 11:02:39;;;;;;;8.63;4.20;;;;;;;18.60;68.25;98013.20;1708533;82;21052;-66
2021/05/18 11:05:11;;;;;;;6.20;4.05;;;;;;;18.55;68.45;98008.45;1698111;83;21033;-65
2021/05/18 11:07:41;;;;;;;6.72;4.53;;;;;;;18.47;69.02;98008.11;1682210;84;21043;-67
2021/05/18 11:10:16;;;;;;;7.53;4.28;;;;;;;18.42;69.37;98004.41;1692172;83;21548;-66
2021/05/18 11:12:48;;;;;;;7.72;3.77;;;;;;;18.45;69.04;97995.96;1701224;83;21028;-66
2021/05/18 11:15:19;;;;;;;7.10;3.90;;;;;;;18.51;68.91;97989.28;1682284;83;21065;-67
2021/05/18 11:17:54;;;;;;;6.03;4.33;;;;;;;18.43;69.15;97985.47;1709743;83;21094;-68
2021/05/18 11:26:04;;;;;;;7.65;3.67;;;;;;;18.41;69.54;97992.86;1702736;84;21070;-66
2021/05/18 11:28:41;;;;;;;10.32;7.97;;;;;;;18.39;69.73;97994.09;1696775;83;21070;-66
2021/05/18 11:31:21;;;;;;;6.65;4.40;;;;;;;18.31;70.18;97981.72;1685447;83;21103;-67
2021/05/18 11:33:56;;;;;;;7.33;4.35;;;;;;;18.26;70.37;97981.00;1704277;82;21038;-67
2021/05/18 11:36:26;;;;;;;7.92;4.60;;;;;;;18.37;70.51;97976.91;1712131;82;21688;-68
2021/05/18 11:39:02;;;;;;;9.18;4.60;;;;;;;18.36;70.61;97969.08;1707090;83;21064;-66
2021/05/18 11:41:34;;;;;;;5.15;3.80;;;;;;;18.28;71.14;97972.24;1715610;82;21698;-67
2021/05/18 11:44:00;;;;;;;5.50;3.85;;;;;;;18.19;71.02;97970.78;1719905;83;21088;-66
2021/05/18 11:46:30;;;;;;;8.18;4.10;;;;;;;18.23;70.64;97968.53;1733012;83;21609;-68
2021/05/18 11:49:04;;;;;;;4.65;4.10;;;;;;;18.23;71.29;97973.88;1747476;81;21585;-66
2021/05/18 11:52:37;;;;;;;4.37;3.58;;;;;;;18.12;71.92;97972.09;1789414;79;23099;-67
2021/05/18 11:55:26;;;;;;;5.47;3.52;;;;;;;18.05;72.20;97972.58;1761934;79;21053;-68
2021/05/18 11:57:54;;;;;;;5.78;4.60;;;;;;;18.09;71.85;97972.48;1764199;80;22020;-68
2021/05/18 12:00:33;;;;;;;8.58;3.77;;;;;;;17.99;71.60;97972.03;1774471;79;21077;-69
2021/05/18 12:03:03;;;;;;;5.20;3.62;;;;;;;17.93;71.31;97972.79;1760346;80;21611;-67
2021/05/18 12:05:30;;;;;;;5.05;3.10;;;;;;;17.92;71.16;97981.86;1769098;79;21106;-68
2021/05/18 12:07:56;;;;;;;4.95;3.45;;;;;;;18.01;70.25;97994.06;1760044;79;21586;-67
2021/05/18 12:10:31;;;;;;;7.03;3.50;;;;;;;17.99;70.33;97992.94;1774899;80;21097;-67
2021/05/18 12:12:57;;;;;;;6.70;4.37;;;;;;;17.97;70.43;97994.16;1768055;79;21056;-68
2021/05/18 12:15:24;;;;;;;6.85;3.50;;;;;;;17.97;70.40;97996.83;1789171;79;21069;-67
2021/05/18 12:17:56;;;;;;;6.08;3.90;;;;;;;18.02;69.90;97997.06;1783993;80;21049;-68
2021/05/18 12:20:23;;;;;;;5.15;4.00;;;;;;;18.06;69.24;97996.16;1766279;79;21050;-68
2021/05/18 12:22:50;;;;;;;5.08;4.50;;;;;;;17.97;69.74;97991.48;1765358;80;21045;-68
2021/05/18 12:25:35;;;;;;;5.67;3.90;;;;;;;17.90;69.74;97993.26;1762804;79;21561;-67
2021/05/18 12:28:12;;;;;;;5.17;3.70;;;;;;;17.94;69.76;97994.05;1761149;80;21070;-66
2021/05/18 12:30:42;;;;;;;8.20;3.85;;;;;;;18.07;69.36;97990.59;1766374;79;21011;-67
2021/05/18 12:33:09;;;;;;;9.83;4.20;;;;;;;18.05;69.40;97984.61;1761905;79;21546;-66
2021/05/18 12:35:36;;;;;;;6.33;3.90;;;;;;;18.04;69.59;97986.16;1760923;80;21644;-67
2021/05/18 12:38:15;;;;;;;6.05;3.58;;;;;;;18.01;69.71;97978.83;1770904;79;21564;-66
2021/05/18 12:40:44;;;;;;;5.53;3.95;;;;;;;18.06;70.06;97974.23;1779854;80;21046;-67
2021/05/18 12:43:15;;;;;;;7.90;4.40;;;;;;;18.13;70.29;97983.12;1789023;79;21057;-67
2021/05/18 12:45:43;;;;;;;5.10;4.30;;;;;;;18.08;70.40;97993.59;1778394;79;21049;-66
2021/05/18 12:48:12;;;;;;;11.57;5.25;;;;;;;18.01;70.68;97992.73;1787485;80;21081;-67
2021/05/18 12:50:49;;;;;;;10.48;6.80;;;;;;;18.00;70.97;97995.89;1765697;79;21092;-69
2021/05/18 12:53:30;;;;;;;5.35;4.17;;;;;;;18.08;71.13;97993.59;1746759;82;21081;-68
2021/05/18 12:55:58;;;;;;;7.67;4.50;;;;;;;18.10;71.46;98000.89;1748236;80;21546;-67
2021/05/18 12:58:32;;;;;;;6.08;4.20;;;;;;;18.12;71.51;97993.99;1756297;80;21609;-68
2021/05/18 13:01:09;;;;;;;4.55;3.77;;;;;;;18.15;71.88;97990.41;1757567;81;21019;-66
2021/05/18 13:03:37;;;;;;;6.22;4.60;;;;;;;18.32;71.82;97980.17;1752458;80;21545;-68
2021/05/18 13:06:04;;;;;;;8.75;4.90;;;;;;;18.45;71.25;97986.59;1771934;81;21027;-67
2021/05/18 13:08:35;;;;;;;7.12;4.67;;;;;;;18.46;70.94;97979.70;1753379;80;21007;-68
2021/05/18 13:12:11;;;;;;;6.72;4.90;;;;;;;18.46;70.35;97981.56;1762720;80;21078;-67
2021/05/18 13:13:59;;;;;;;7.87;4.78;;;;;;;18.42;70.66;97985.67;1686663;84;21128;-67
2021/05/18 13:16:31;;;;;;;5.55;4.35;;;;;;;18.48;70.33;97983.00;1751173;80;21066;-67
2021/05/18 13:19:11;;;;;;;7.37;4.78;;;;;;;18.47;69.97;97973.32;1769031;81;21058;-67
2021/05/18 13:21:50;;;;;;;5.87;4.45;;;;;;;18.43;70.11;97977.44;1749153;80;21062;-66
2021/05/18 13:26:41;;;;;;;5.75;3.90;;;;;;;18.42;69.29;97963.73;1755101;81;21050;-66
2021/05/18 13:29:15;;;;;;;8.88;7.05;;;;;;;18.51;69.04;97958.50;1752650;80;21552;-68
2021/05/18 13:31:39;;;;;;;6.30;4.58;;;;;;;18.48;68.81;97949.55;1750081;80;22344;-68
2021/05/18 13:34:07;;;;;;;6.97;4.53;;;;;;;18.40;69.26;97948.41;1746610;80;21721;-68
2021/05/18 13:36:35;;;;;;;7.75;4.45;;;;;;;18.34;69.60;97953.23;1753440;80;21117;-68
2021/05/18 13:39:03;;;;;;;70.72;48.55;;;;;;;18.45;69.72;97951.31;1746585;82;21570;-67
2021/05/18 13:41:30;;;;;;;11.75;9.10;;;;;;;18.57;69.37;97962.23;1746510;80;21085;-67
2021/05/18 13:43:56;;;;;;;51.75;38.50;;;;;;;18.59;69.71;97962.84;1747039;81;21074;-67
2021/05/18 13:46:23;;;;;;;13.08;9.38;;;;;;;18.60;69.50;97969.84;1746893;80;21019;-67
2021/05/18 13:48:49;;;;;;;42.20;32.15;;;;;;;18.63;69.39;97973.47;1750548;80;21041;-68
2021/05/18 13:51:16;;;;;;;5.08;3.33;;;;;;;18.79;68.52;97978.12;1749063;81;21082;-67
2021/05/18 13:53:42;;;;;;;3.50;2.77;;;;;;;18.88;66.26;97973.39;1748220;80;21537;-68
2021/05/18 13:56:10;;;;;;;7.53;2.98;;;;;;;18.91;65.23;97973.00;1746762;80;21053;-67
2021/05/18 13:58:37;;;;;;;4.87;3.47;;;;;;;18.93;64.02;97973.64;1746860;82;21042;-68
2021/05/18 14:01:06;;;;;;;4.10;2.95;;;;;;;18.92;63.64;97962.08;1752366;80;21078;-69
2021/05/18 14:03:34;;;;;;;4.37;3.08;;;;;;;18.95;63.79;97963.52;1752688;81;21594;-67
2021/05/18 14:06:02;;;;;;;5.53;2.98;;;;;;;19.02;64.27;97958.19;1760831;80;21025;-68
2021/05/18 14:08:37;;;;;;;4.30;3.10;;;;;;;19.16;64.00;97959.82;1755524;80;21051;-68
2021/05/18 14:11:19;;;;;;;4.47;3.35;;;;;;;19.32;64.17;97964.75;1752996;81;21003;-68
2021/05/18 14:13:53;;;;;;;4.97;3.37;;;;;;;19.36;63.87;97957.13;1753129;80;21096;-69
2021/05/18 14:16:22;;;;;;;5.03;3.40;;;;;;;19.35;64.39;97953.29;1767580;81;21061;-67
2021/05/18 14:18:55;;;;;;;4.25;3.65;;;;;;;19.37;64.84;97949.90;1758673;80;21006;-67
2021/05/18 14:21:22;;;;;;;4.83;3.55;;;;;;;19.40;64.59;97946.29;1750945;80;21044;-68
2021/05/18 14:26:29;;;;;;;5.87;3.98;;;;;;;19.57;64.28;97946.66;1758592;80;21650;-68
2021/05/18 14:28:54;;;;;;;8.05;4.90;;;;;;;19.55;64.57;97945.22;1754647;81;21321;-67
2021/05/18 14:31:21;;;;;;;7.72;4.83;;;;;;;19.48;64.73;97943.90;1752434;80;21674;-66
2021/05/18 14:33:48;;;;;;;8.20;5.22;;;;;;;19.42;64.46;97942.86;1752070;80;21110;-68
2021/05/18 14:36:14;;;;;;;6.75;4.37;;;;;;;19.31;64.56;97938.17;1746479;82;21038;-66
2021/05/18 14:38:43;;;;;;;7.97;4.53;;;;;;;19.30;64.47;97934.64;1747605;80;21087;-68
2021/05/18 14:46:33;;;;;;;7.45;5.37;;;;;;;19.25;65.40;97939.00;1747587;80;21069;-67
2021/05/18 14:56:50;;;;;;;7.17;4.75;;;;;;;19.18;65.93;97942.19;1766658;80;21096;-66
2021/05/18 14:59:17;;;;;;;9.68;7.30;;;;;;;19.06;66.53;97929.95;1748085;80;21079;-66
2021/05/18 15:01:43;;;;;;;11.90;7.60;;;;;;;18.90;66.57;97929.34;1751576;81;21633;-67
2021/05/18 15:04:09;;;;;;;11.45;6.78;;;;;;;18.73;66.94;97918.16;1755443;80;21051;-66
2021/05/18 15:06:36;;;;;;;7.62;4.97;;;;;;;18.71;67.29;97914.88;1746216;81;21089;-67
2021/05/18 15:09:04;;;;;;;9.65;5.10;;;;;;;18.76;66.63;97917.77;1773376;81;21082;-67
2021/05/18 15:11:30;;;;;;;6.08;3.67;;;;;;;18.74;66.82;97925.17;1771884;80;21657;-67
2021/05/18 15:13:58;;;;;;;7.12;4.78;;;;;;;18.61;67.02;97927.33;1774488;80;22163;-67
2021/05/18 15:16:25;;;;;;;8.00;4.37;;;;;;;18.48;67.27;97922.78;1760316;80;21070;-66
2021/05/18 15:18:54;;;;;;;5.45;4.20;;;;;;;18.46;67.16;97923.49;1759551;80;21113;-68
2021/05/18 15:21:19;;;;;;;7.10;4.20;;;;;;;18.47;67.03;97918.98;1776188;81;21570;-68
2021/05/18 15:23:46;;;;;;;8.35;5.37;;;;;;;18.56;67.14;97923.10;1754355;80;21059;-67
2021/05/18 15:26:13;;;;;;;11.22;6.97;;;;;;;18.54;67.11;97919.80;1762168;81;21039;-67
2021/05/18 15:28:42;;;;;;;9.78;7.35;;;;;;;18.47;67.47;97922.47;1757581;80;21615;-68
2021/05/18 15:31:10;;;;;;;10.88;7.42;;;;;;;18.39;67.65;97924.02;1746452;81;21067;-68
2021/05/18 15:33:37;;;;;;;10.78;7.35;;;;;;;18.37;68.06;97923.91;1711601;83;21158;-68
2021/05/18 15:36:04;;;;;;;13.35;7.78;;;;;;;18.41;68.06;97924.61;1749160;80;21600;-67
2021/05/18 15:38:38;;;;;;;12.90;9.45;;;;;;;18.35;68.39;97924.12;1756138;81;21066;-68
2021/05/18 15:41:00;;;;;;;13.28;9.15;;;;;;;18.24;68.76;97922.03;1756397;80;21550;-67
2021/05/18 15:43:27;;;;;;;12.85;9.33;;;;;;;18.13;69.15;97926.94;1749796;80;21104;-66
2021/05/18 15:45:53;;;;;;;14.47;9.68;;;;;;;18.17;69.39;97920.65;1746898;81;21092;-68
2021/05/18 15:48:20;;;;;;;13.60;9.70;;;;;;;18.15;69.49;97910.16;1753844;80;21002;-68
2021/05/18 15:50:46;;;;;;;11.83;10.15;;;;;;;18.08;69.37;97908.00;1755931;81;21043;-67
2021/05/18 15:53:12;;;;;;;11.80;9.23;;;;;;;17.99;69.11;97908.69;1760726;80;21657;-67
2021/05/18 15:55:40;;;;;;;12.37;7.45;;;;;;;17.94;69.05;97904.95;1763706;80;21659;-68
2021/05/18 15:58:08;;;;;;;10.85;8.20;;;;;;;17.99;68.49;97904.67;1752065;80;21050;-67
2021/05/18 16:00:34;;;;;;;12.90;8.65;;;;;;;17.94;68.09;97903.61;1757167;80;21003;-68
2021/05/18 16:03:00;;;;;;;14.07;9.50;;;;;;;17.87;68.17;97894.73;1754970;80;21059;-66
2021/05/18 16:05:28;;;;;;;14.50;8.60;;;;;;;17.77;68.54;97887.89;1776111;81;21066;-67
2021/05/18 16:08:05;;;;;;;11.88;8.63;;;;;;;17.77;68.76;97888.41;1756945;80;21071;-69
2021/05/18 16:10:25;;;;;;;15.28;9.13;;;;;;;17.83;68.88;97878.26;1762098;81;21630;-67
2021/05/18 16:12:52;;;;;;;12.60;9.88;;;;;;;17.81;69.09;97879.80;1751135;80;21062;-68
2021/05/18 16:15:19;;;;;;;11.78;8.95;;;;;;;17.78;69.27;97876.17;1753479;80;21074;-66
2021/05/18 16:17:46;;;;;;;12.70;8.80;;;;;;;17.75;68.82;97881.94;1718617;80;21019;-68
2021/05/18 16:20:14;;;;;;;11.60;9.03;;;;;;;17.78;68.90;97883.38;1762144;80;21061;-68
2021/05/18 16:22:41;;;;;;;12.78;9.43;;;;;;;17.85;68.50;97892.23;1765542;80;21090;-69
2021/05/18 16:25:09;;;;;;;11.97;9.63;;;;;;;17.82;68.50;97897.47;1767441;81;21047;-67
2021/05/18 16:27:35;;;;;;;14.85;11.18;;;;;;;17.78;68.40;97894.89;1766824;80;21047;-67
2021/05/18 16:30:04;;;;;;;20.02;11.15;;;;;;;17.75;68.62;97892.63;1750792;81;20979;-67
2021/05/18 16:32:30;;;;;;;9.40;7.75;;;;;;;17.77;68.48;97887.89;1742599;81;21436;-67
2021/05/18 16:34:57;;;;;;;12.07;8.60;;;;;;;17.88;68.10;97888.34;1758646;80;21031;-68
2021/05/18 16:37:26;;;;;;;12.10;9.10;;;;;;;17.83;68.13;97889.77;1756441;81;21054;-68
2021/05/18 16:39:54;;;;;;;13.62;8.20;;;;;;;17.78;68.77;97886.88;1750167;80;21105;-67
2021/05/18 16:42:21;;;;;;;11.22;8.65;;;;;;;17.74;69.00;97883.48;1770802;81;21054;-67
2021/05/18 16:44:47;;;;;;;12.23;8.48;;;;;;;17.81;68.81;97878.96;1745508;80;21052;-67
2021/05/18 16:47:14;;;;;;;16.23;11.97;;;;;;;17.80;68.94;97872.80;1771852;80;21634;-67